EZY16XL EGPH-LEAL
Flight info
| Callsign | EZY16XL |
|---|---|
| Flight time | N/A |
| Altitude | 39000 |
| Route | GOSAM P600 FENIK L612 NAVSO DCT ADZOP DCT EGTOC DCT NOKIN N862 KARNO DCT ALHUP DCT ABWIV DCT PACSE DCT TONQU DCT MANIG DCT KORER UN26 UVUDO UN862 UTISO DCT OSMOB DCT TBO DCT PERDU DCT POSSY DCT XIMPE DCT RIMES DCT SAURA DCT TATOS N860 PLANA DCT VLC |
| Aircraft | A20N/M-SDE2E3FGHIRWXY/LB1 |
Departure
| Time | 2026-04-25 22:11 |
|---|---|
| Airport | Edinburgh Airport (EGPH) |
Arrival
| Time | N/A |
|---|---|
| Airport | Alicante-Elche Miguel Hernández Airport (LEAL) |
| Time | Latitude | Longitude | Altitude | Speed | Heading |
|---|---|---|---|---|---|
| 2026-04-25 21:57 | 55.94954 | -3.36020 | 142 ft | 0 kts | 254° |
| 2026-04-25 22:03 | 55.94955 | -3.36011 | 142 ft | 2 kts | 255° |
| 2026-04-25 22:03 | 55.94960 | -3.35985 | 142 ft | 2 kts | 254° |
| 2026-04-25 22:03 | 55.94964 | -3.35959 | 142 ft | 2 kts | 255° |
| 2026-04-25 22:04 | 55.94968 | -3.35933 | 142 ft | 2 kts | 258° |
| 2026-04-25 22:04 | 55.94968 | -3.35907 | 142 ft | 2 kts | 287° |
| 2026-04-25 22:04 | 55.94961 | -3.35882 | 142 ft | 2 kts | 310° |
| 2026-04-25 22:04 | 55.94950 | -3.35865 | 142 ft | 2 kts | 333° |
| 2026-04-25 22:05 | 55.94941 | -3.35858 | 142 ft | 0 kts | 347° |
| 2026-04-25 22:05 | 55.94934 | -3.35856 | 142 ft | 0 kts | 349° |
| 2026-04-25 22:06 | 55.94942 | -3.35859 | 142 ft | 7 kts | 349° |
| 2026-04-25 22:06 | 55.95017 | -3.35839 | 142 ft | 11 kts | 2° |
| 2026-04-25 22:07 | 55.95076 | -3.35934 | 142 ft | 12 kts | 297° |
| 2026-04-25 22:07 | 55.95099 | -3.36034 | 142 ft | 13 kts | 291° |
| 2026-04-25 22:07 | 55.95133 | -3.36264 | 142 ft | 14 kts | 256° |
| 2026-04-25 22:07 | 55.95081 | -3.36433 | 142 ft | 16 kts | 238° |
| 2026-04-25 22:08 | 55.95019 | -3.36617 | 142 ft | 19 kts | 239° |
| 2026-04-25 22:08 | 55.94942 | -3.36844 | 142 ft | 23 kts | 239° |
| 2026-04-25 22:08 | 55.94849 | -3.37120 | 142 ft | 27 kts | 238° |
| 2026-04-25 22:08 | 55.94744 | -3.37429 | 141 ft | 30 kts | 239° |
| 2026-04-25 22:09 | 55.94626 | -3.37773 | 141 ft | 33 kts | 239° |
| 2026-04-25 22:09 | 55.94606 | -3.37955 | 141 ft | 7 kts | 317° |
| 2026-04-25 22:09 | 55.94622 | -3.37974 | 141 ft | 0 kts | 332° |
| 2026-04-25 22:09 | 55.94625 | -3.37976 | 141 ft | 2 kts | 330° |
| 2026-04-25 22:10 | 55.94687 | -3.38051 | 142 ft | 10 kts | 317° |
| 2026-04-25 22:10 | 55.94742 | -3.38001 | 141 ft | 12 kts | 59° |
| 2026-04-25 22:10 | 55.94907 | -3.37512 | 142 ft | 81 kts | 59° |
| 2026-04-25 22:10 | 55.95307 | -3.36327 | 142 ft | 140 kts | 60° |
| 2026-04-25 22:11 | 55.95862 | -3.34685 | 467 ft | 160 kts | 60° |
| 2026-04-25 22:11 | 55.96516 | -3.33205 | 1270 ft | 150 kts | 44° |
| 2026-04-25 22:11 | 55.97299 | -3.32018 | 1910 ft | 151 kts | 43° |
| 2026-04-25 22:11 | 55.98119 | -3.30774 | 2291 ft | 163 kts | 43° |
| 2026-04-25 22:12 | 55.99018 | -3.29376 | 2664 ft | 177 kts | 42° |
| 2026-04-25 22:12 | 56.00139 | -3.28354 | 2973 ft | 196 kts | 6° |
| 2026-04-25 22:12 | 56.01500 | -3.29073 | 3233 ft | 218 kts | 318° |
| 2026-04-25 22:12 | 56.02153 | -3.30479 | 3501 ft | 228 kts | 300° |
| 2026-04-25 22:13 | 56.03038 | -3.34052 | 4072 ft | 250 kts | 280° |
| 2026-04-25 22:13 | 56.02969 | -3.37215 | 4607 ft | 261 kts | 256° |
| 2026-04-25 22:13 | 56.02467 | -3.40318 | 5429 ft | 263 kts | 253° |
| 2026-04-25 22:13 | 56.01926 | -3.43397 | 6274 ft | 264 kts | 254° |
| 2026-04-25 22:14 | 56.01413 | -3.46545 | 7089 ft | 267 kts | 255° |
| 2026-04-25 22:14 | 56.00938 | -3.49710 | 7866 ft | 270 kts | 256° |
| 2026-04-25 22:14 | 56.00468 | -3.52958 | 8652 ft | 274 kts | 256° |
| 2026-04-25 22:14 | 55.99994 | -3.56268 | 9417 ft | 278 kts | 256° |
| 2026-04-25 22:15 | 55.99516 | -3.59618 | 10168 ft | 281 kts | 256° |
| 2026-04-25 22:15 | 55.99030 | -3.63027 | 10716 ft | 293 kts | 256° |
| 2026-04-25 22:15 | 55.98510 | -3.66658 | 11080 ft | 310 kts | 255° |
| 2026-04-25 22:16 | 55.97369 | -3.74588 | 11737 ft | 343 kts | 255° |
| 2026-04-25 22:16 | 55.96790 | -3.78602 | 12299 ft | 349 kts | 255° |
| 2026-04-25 22:16 | 55.96178 | -3.82841 | 12984 ft | 352 kts | 255° |
| 2026-04-25 22:16 | 55.95584 | -3.86934 | 13616 ft | 354 kts | 254° |
| 2026-04-25 22:17 | 55.94960 | -3.91215 | 14225 ft | 358 kts | 254° |
| 2026-04-25 22:17 | 55.94339 | -3.95466 | 14815 ft | 361 kts | 255° |
| 2026-04-25 22:17 | 55.93773 | -3.99859 | 15405 ft | 364 kts | 258° |
| 2026-04-25 22:17 | 55.93065 | -4.04208 | 15946 ft | 366 kts | 244° |
| 2026-04-25 22:18 | 55.91621 | -4.07867 | 16491 ft | 369 kts | 225° |
| 2026-04-25 22:18 | 55.89508 | -4.10485 | 17013 ft | 373 kts | 205° |
| 2026-04-25 22:18 | 55.87064 | -4.12061 | 17523 ft | 377 kts | 201° |
| 2026-04-25 22:18 | 55.84652 | -4.13837 | 17999 ft | 379 kts | 207° |
| 2026-04-25 22:19 | 55.82320 | -4.16092 | 18469 ft | 381 kts | 213° |
| 2026-04-25 22:19 | 55.80072 | -4.18614 | 18934 ft | 384 kts | 215° |
| 2026-04-25 22:19 | 55.77864 | -4.21253 | 19407 ft | 386 kts | 216° |
| 2026-04-25 22:19 | 55.75654 | -4.24003 | 19864 ft | 388 kts | 216° |
| 2026-04-25 22:20 | 55.73300 | -4.26214 | 20264 ft | 394 kts | 199° |
| 2026-04-25 22:20 | 55.70543 | -4.26811 | 20713 ft | 401 kts | 178° |
| 2026-04-25 22:20 | 55.67849 | -4.25677 | 21168 ft | 408 kts | 158° |
| 2026-04-25 22:20 | 55.65347 | -4.23296 | 21615 ft | 412 kts | 153° |
| 2026-04-25 22:21 | 55.62859 | -4.20784 | 22013 ft | 415 kts | 153° |
| 2026-04-25 22:21 | 55.60335 | -4.18261 | 22409 ft | 417 kts | 153° |
| 2026-04-25 22:21 | 55.57798 | -4.15752 | 22811 ft | 419 kts | 153° |
| 2026-04-25 22:21 | 55.55253 | -4.13255 | 23202 ft | 421 kts | 153° |
| 2026-04-25 22:22 | 55.52707 | -4.10771 | 23579 ft | 423 kts | 153° |
| 2026-04-25 22:22 | 55.50109 | -4.08240 | 23969 ft | 425 kts | 153° |
| 2026-04-25 22:22 | 55.47542 | -4.05747 | 24349 ft | 427 kts | 153° |
| 2026-04-25 22:22 | 55.44931 | -4.03214 | 24724 ft | 429 kts | 153° |
| 2026-04-25 22:23 | 55.42304 | -4.00668 | 25084 ft | 431 kts | 153° |
| 2026-04-25 22:23 | 55.39676 | -3.98123 | 25227 ft | 432 kts | 153° |
| 2026-04-25 22:23 | 55.37062 | -3.95594 | 25281 ft | 435 kts | 153° |
| 2026-04-25 22:23 | 55.34420 | -3.93044 | 25643 ft | 436 kts | 153° |
| 2026-04-25 22:24 | 55.31749 | -3.90467 | 26055 ft | 436 kts | 153° |
| 2026-04-25 22:24 | 55.29121 | -3.87936 | 26388 ft | 438 kts | 153° |
| 2026-04-25 22:24 | 55.26427 | -3.85349 | 26694 ft | 440 kts | 153° |
| 2026-04-25 22:24 | 55.23712 | -3.82939 | 26985 ft | 441 kts | 156° |
| 2026-04-25 22:25 | 55.20868 | -3.80794 | 27273 ft | 443 kts | 160° |
| 2026-04-25 22:25 | 55.17975 | -3.78994 | 27557 ft | 444 kts | 164° |
| 2026-04-25 22:25 | 55.15067 | -3.77406 | 27834 ft | 445 kts | 164° |
| 2026-04-25 22:25 | 55.12101 | -3.75787 | 28101 ft | 447 kts | 164° |
| 2026-04-25 22:26 | 55.09138 | -3.74168 | 28356 ft | 449 kts | 164° |
| 2026-04-25 22:26 | 55.06147 | -3.72534 | 28609 ft | 451 kts | 164° |
| 2026-04-25 22:26 | 55.03153 | -3.70902 | 28860 ft | 452 kts | 164° |
| 2026-04-25 22:26 | 55.00158 | -3.69271 | 29101 ft | 454 kts | 164° |
| 2026-04-25 22:27 | 54.97123 | -3.67619 | 29322 ft | 455 kts | 164° |
| 2026-04-25 22:27 | 54.94088 | -3.65972 | 29533 ft | 457 kts | 164° |
| 2026-04-25 22:27 | 54.91065 | -3.64333 | 29757 ft | 458 kts | 164° |
| 2026-04-25 22:27 | 54.88020 | -3.62684 | 30053 ft | 457 kts | 164° |
| 2026-04-25 22:28 | 54.84964 | -3.61032 | 30360 ft | 456 kts | 164° |
| 2026-04-25 22:28 | 54.81983 | -3.59420 | 30646 ft | 455 kts | 164° |
| 2026-04-25 22:28 | 54.78963 | -3.57790 | 30916 ft | 454 kts | 164° |
| 2026-04-25 22:28 | 54.75964 | -3.56176 | 31181 ft | 454 kts | 164° |
| 2026-04-25 22:29 | 54.72929 | -3.54545 | 31457 ft | 453 kts | 164° |
| 2026-04-25 22:29 | 54.69956 | -3.52950 | 31725 ft | 452 kts | 165° |
| 2026-04-25 22:29 | 54.66960 | -3.51346 | 31990 ft | 451 kts | 165° |
| 2026-04-25 22:30 | 54.60979 | -3.48150 | 32508 ft | 449 kts | 165° |
| 2026-04-25 22:30 | 54.58034 | -3.46579 | 32742 ft | 449 kts | 165° |
| 2026-04-25 22:30 | 54.55023 | -3.44976 | 32978 ft | 449 kts | 165° |
| 2026-04-25 22:30 | 54.53044 | -3.43925 | 33126 ft | 449 kts | 164° |
| 2026-04-25 22:31 | 54.49077 | -3.41819 | 33455 ft | 447 kts | 164° |
| 2026-04-25 22:31 | 54.46111 | -3.40248 | 33693 ft | 447 kts | 164° |
| 2026-04-25 22:31 | 54.43158 | -3.38685 | 33912 ft | 446 kts | 164° |
| 2026-04-25 22:31 | 54.40219 | -3.37130 | 34140 ft | 445 kts | 164° |
| 2026-04-25 22:32 | 54.37279 | -3.35580 | 34355 ft | 445 kts | 164° |
| 2026-04-25 22:32 | 54.34308 | -3.34014 | 34562 ft | 445 kts | 165° |
| 2026-04-25 22:32 | 54.31338 | -3.32450 | 34753 ft | 444 kts | 165° |
| 2026-04-25 22:32 | 54.28390 | -3.30898 | 34927 ft | 444 kts | 165° |
| 2026-04-25 22:33 | 54.25448 | -3.29355 | 35102 ft | 443 kts | 165° |
| 2026-04-25 22:33 | 54.22509 | -3.27819 | 35250 ft | 443 kts | 166° |
| 2026-04-25 22:33 | 54.19539 | -3.26486 | 35390 ft | 443 kts | 169° |
| 2026-04-25 22:33 | 54.16548 | -3.25494 | 35519 ft | 442 kts | 173° |
| 2026-04-25 22:34 | 54.13506 | -3.24834 | 35657 ft | 441 kts | 177° |
| 2026-04-25 22:34 | 54.10469 | -3.24363 | 35798 ft | 441 kts | 177° |
| 2026-04-25 22:34 | 54.07406 | -3.23883 | 35934 ft | 441 kts | 177° |
| 2026-04-25 22:34 | 54.04366 | -3.23404 | 36065 ft | 440 kts | 177° |
| 2026-04-25 22:35 | 54.01326 | -3.22853 | 36206 ft | 441 kts | 174° |
| 2026-04-25 22:35 | 53.98311 | -3.22038 | 36326 ft | 442 kts | 171° |
| 2026-04-25 22:35 | 53.95324 | -3.20951 | 36433 ft | 443 kts | 169° |
| 2026-04-25 22:35 | 53.92298 | -3.19793 | 36543 ft | 443 kts | 169° |
| 2026-04-25 22:36 | 53.89292 | -3.18654 | 36652 ft | 443 kts | 169° |
| 2026-04-25 22:36 | 53.86267 | -3.17510 | 36780 ft | 443 kts | 169° |
| 2026-04-25 22:36 | 53.83275 | -3.16379 | 36918 ft | 443 kts | 169° |
| 2026-04-25 22:36 | 53.80236 | -3.15232 | 37059 ft | 443 kts | 169° |
| 2026-04-25 22:37 | 53.77229 | -3.14098 | 37195 ft | 442 kts | 169° |
| 2026-04-25 22:37 | 53.74243 | -3.12972 | 37337 ft | 442 kts | 169° |
| 2026-04-25 22:37 | 53.71233 | -3.11840 | 37467 ft | 442 kts | 169° |
| 2026-04-25 22:37 | 53.68239 | -3.10715 | 37576 ft | 442 kts | 169° |
| 2026-04-25 22:38 | 53.65241 | -3.09591 | 37696 ft | 442 kts | 169° |
| 2026-04-25 22:38 | 53.62249 | -3.08470 | 37800 ft | 442 kts | 170° |
| 2026-04-25 22:38 | 53.59253 | -3.07349 | 37922 ft | 442 kts | 169° |
| 2026-04-25 22:38 | 53.56289 | -3.06243 | 38039 ft | 442 kts | 170° |
| 2026-04-25 22:39 | 53.53296 | -3.05127 | 38142 ft | 442 kts | 169° |
| 2026-04-25 22:39 | 53.50284 | -3.04006 | 38246 ft | 442 kts | 169° |
| 2026-04-25 22:39 | 53.44314 | -3.01787 | 38427 ft | 441 kts | 169° |
| 2026-04-25 22:40 | 53.38325 | -2.99565 | 38579 ft | 441 kts | 169° |
| 2026-04-25 22:40 | 53.32345 | -2.97354 | 38708 ft | 442 kts | 170° |
| 2026-04-25 22:41 | 53.26326 | -2.95137 | 38817 ft | 442 kts | 170° |
| 2026-04-25 22:41 | 53.20332 | -2.92932 | 38943 ft | 443 kts | 169° |
| 2026-04-25 22:42 | 53.14335 | -2.90735 | 39030 ft | 443 kts | 169° |
| 2026-04-25 22:42 | 53.08318 | -2.88953 | 39119 ft | 442 kts | 177° |
| 2026-04-25 22:43 | 53.02212 | -2.88924 | 39191 ft | 439 kts | 186° |
| 2026-04-25 22:43 | 52.96121 | -2.89680 | 39252 ft | 439 kts | 187° |
| 2026-04-25 22:44 | 52.90075 | -2.90443 | 39255 ft | 439 kts | 186° |
| 2026-04-25 22:44 | 52.83975 | -2.91195 | 39253 ft | 439 kts | 187° |
| 2026-04-25 22:45 | 52.77909 | -2.91937 | 39252 ft | 440 kts | 187° |
| 2026-04-25 22:45 | 52.71808 | -2.92678 | 39250 ft | 440 kts | 187° |
| 2026-04-25 22:46 | 52.65738 | -2.93411 | 39251 ft | 440 kts | 187° |
| 2026-04-25 22:46 | 52.59634 | -2.94148 | 39247 ft | 440 kts | 187° |
| 2026-04-25 22:47 | 52.53548 | -2.94877 | 39244 ft | 441 kts | 187° |
| 2026-04-25 22:47 | 52.47439 | -2.95610 | 39243 ft | 441 kts | 187° |
| 2026-04-25 22:48 | 52.41352 | -2.96337 | 39239 ft | 441 kts | 187° |
| 2026-04-25 22:48 | 52.35220 | -2.97069 | 39238 ft | 442 kts | 187° |
| 2026-04-25 22:49 | 52.29131 | -2.97794 | 39235 ft | 443 kts | 187° |
| 2026-04-25 22:49 | 52.22980 | -2.98522 | 39240 ft | 443 kts | 187° |
| 2026-04-25 22:50 | 52.16845 | -2.99247 | 39237 ft | 443 kts | 187° |
| 2026-04-25 22:50 | 52.10720 | -2.99969 | 39232 ft | 443 kts | 187° |
| 2026-04-25 22:51 | 52.04578 | -3.00690 | 39229 ft | 444 kts | 187° |
| 2026-04-25 22:51 | 51.98405 | -3.01411 | 39231 ft | 445 kts | 187° |
| 2026-04-25 22:52 | 51.92220 | -3.02135 | 39238 ft | 445 kts | 187° |
| 2026-04-25 22:52 | 51.87094 | -3.02733 | 39236 ft | 445 kts | 187° |
| 2026-04-25 22:53 | 51.79938 | -3.03567 | 39234 ft | 444 kts | 187° |
| 2026-04-25 22:53 | 51.73773 | -3.04283 | 39233 ft | 445 kts | 187° |
| 2026-04-25 22:54 | 51.67594 | -3.04997 | 39241 ft | 445 kts | 187° |
| 2026-04-25 22:54 | 51.61438 | -3.05705 | 39240 ft | 446 kts | 187° |
| 2026-04-25 22:55 | 51.55272 | -3.06414 | 39234 ft | 447 kts | 187° |
| 2026-04-25 22:55 | 51.49073 | -3.07125 | 39246 ft | 446 kts | 187° |
| 2026-04-25 22:56 | 51.42921 | -3.07827 | 39252 ft | 446 kts | 187° |
| 2026-04-25 22:56 | 51.36749 | -3.08532 | 39244 ft | 446 kts | 187° |
| 2026-04-25 22:57 | 51.30606 | -3.09231 | 39239 ft | 446 kts | 187° |
| 2026-04-25 22:57 | 51.24390 | -3.09936 | 39241 ft | 447 kts | 187° |
| 2026-04-25 22:58 | 51.18235 | -3.10633 | 39245 ft | 447 kts | 187° |
| 2026-04-25 22:58 | 51.12010 | -3.11336 | 39231 ft | 447 kts | 187° |
| 2026-04-25 22:59 | 51.05851 | -3.12028 | 39232 ft | 447 kts | 187° |
| 2026-04-25 22:59 | 50.99641 | -3.12723 | 39220 ft | 448 kts | 187° |
| 2026-04-25 23:00 | 50.93450 | -3.13417 | 39219 ft | 448 kts | 187° |
| 2026-04-25 23:00 | 50.87206 | -3.14115 | 39214 ft | 448 kts | 187° |
| 2026-04-25 23:01 | 50.81012 | -3.14804 | 39219 ft | 448 kts | 187° |
| 2026-04-25 23:01 | 50.74829 | -3.15490 | 39205 ft | 448 kts | 187° |
| 2026-04-25 23:02 | 50.68615 | -3.16179 | 39215 ft | 448 kts | 187° |
| 2026-04-25 23:02 | 50.62394 | -3.16867 | 39214 ft | 449 kts | 187° |
| 2026-04-25 23:03 | 50.56167 | -3.17552 | 39224 ft | 449 kts | 187° |